Portada
METAR-TAF:

METAR-TAF

Aeroports :

Balmaceda, Xile

latitud: 45-55S, longitud: 071-41W, altitud: 520 m

Observació

L'informe es va fer fa 1 hora i 4 minuts, a les 13:00 UTC
Vent 4 kt del Oest/Sud-Oest
Temperatura 7°C
Humitat 70%
Pressió 1025 hPa
Visibilitat 10 km o més
sense núvols per sota de 1500 mi sense presència de cumulonimbus.

METAR: SCBA 301300Z 25004KT CAVOK 07/02 Q1025

Hora: 11:04 (14:04 UTC)

Pronòstic

L'informe es va fer fa 3 hores i 11 minuts, a les 10:53 UTC
Pronòstic vàlid del 30 a les 12 UTC al 31 a les 12 UTC
Vent 13 kt del Oest/Nord-Oest
Visibilitat 10 km o més
sense núvols per sota de 1500 mi sense presència de cumulonimbus.
Evolucionant progressivament
l' 31 a les 01 UTC al 31 a les 03 UTC
Vent 3 kt amb direcció variable

TAF: SCBA 301053Z 3012/3112 30013KT CAVOK TX15/3019Z TNM02/3110Z BECMG 3101/3103 VRB03KT

Observacions i pronòstics meteorològics de més de 4000 aeroports (METAR i TAF).

Les estacions disponibles són els punts grocs i vermells al mapa.

Posi el ratolí al punt desitjat per veure el nom de l'estació.

Feu clic per veure les observacions i els pronòstics meteorològics.

Per canviar el mapa: feu clic els botons verds amb una creu de color negre per apropar; al botó verd amb un guió per allunyar la imatge; o en les fletxes verdes per a mapes adjacents.


METAR-TAF: